createdAt,value
2018-06-10T00:00:46.564Z,10.27
2018-06-10T00:03:15.360Z,9.57
2018-06-10T00:05:44.128Z,8.60
2018-06-10T00:08:12.928Z,8.70
2018-06-10T00:10:41.672Z,7.67
2018-06-10T00:13:10.493Z,8.57
2018-06-10T00:15:39.280Z,8.13
2018-06-10T00:18:08.064Z,8.70
2018-06-10T00:20:36.836Z,9.13
2018-06-10T00:23:05.684Z,8.70
2018-06-10T00:25:34.216Z,9.13
2018-06-10T00:28:02.978Z,9.20
2018-06-10T00:30:31.772Z,9.30
2018-06-10T00:33:00.604Z,9.23
2018-06-10T00:35:29.403Z,8.97
2018-06-10T00:37:58.162Z,9.33
2018-06-10T00:40:26.968Z,8.87
2018-06-10T00:42:55.739Z,9.60
2018-06-10T00:45:24.524Z,8.80
2018-06-10T00:47:53.335Z,8.50
2018-06-10T00:50:22.100Z,8.73
2018-06-10T00:52:50.900Z,8.17
2018-06-10T00:55:19.686Z,9.07
2018-06-10T00:57:48.471Z,7.23
2018-06-10T01:00:17.247Z,8.40
2018-06-10T01:02:46.051Z,7.53
2018-06-10T01:05:14.963Z,8.50
2018-06-10T01:07:43.842Z,8.67
2018-06-10T01:10:12.587Z,7.30
2018-06-10T01:12:41.347Z,9.10
2018-06-10T01:15:10.171Z,7.80
2018-06-10T01:17:38.975Z,7.70
2018-06-10T01:20:07.755Z,8.43
2018-06-10T01:22:36.591Z,7.90
2018-06-10T01:25:05.347Z,8.40
2018-06-10T01:27:34.126Z,8.43
2018-06-10T01:30:02.883Z,8.47
2018-06-10T01:32:31.707Z,7.93
2018-06-10T01:35:00.493Z,8.30
2018-06-10T01:37:29.295Z,7.40
2018-06-10T01:39:57.851Z,8.50
2018-06-10T01:42:27.586Z,7.70
2018-06-10T01:44:56.323Z,7.50
2018-06-10T01:47:25.195Z,8.20
2018-06-10T01:49:54.039Z,7.90
2018-06-10T01:52:22.807Z,7.80
2018-06-10T01:54:51.571Z,8.10
2018-06-10T01:57:20.391Z,7.80
2018-06-10T01:59:49.191Z,7.73
2018-06-10T02:02:17.979Z,7.67
2018-06-10T02:04:46.771Z,8.03
2018-06-10T02:07:15.575Z,7.60
2018-06-10T02:09:44.355Z,7.37
2018-06-10T02:12:13.143Z,7.37
2018-06-10T02:14:41.911Z,7.27
2018-06-10T02:17:10.699Z,7.60
2018-06-10T02:19:39.495Z,6.60
2018-06-10T02:22:09.224Z,7.10
2018-06-10T02:24:38.016Z,6.93
2018-06-10T02:27:06.800Z,6.97
2018-06-10T02:29:35.355Z,7.80
2018-06-10T02:32:04.391Z,7.50
2018-06-10T02:34:33.136Z,6.97
2018-06-10T02:37:01.915Z,6.93
2018-06-10T02:39:30.732Z,7.20
2018-06-10T02:42:00.604Z,6.80
2018-06-10T02:44:29.329Z,6.30
2018-06-10T02:46:57.897Z,7.80
2018-06-10T02:49:26.549Z,6.70
2018-06-10T02:51:56.396Z,6.47
2018-06-10T02:54:25.148Z,6.67
2018-06-10T02:56:53.964Z,7.20
2018-06-10T02:59:22.772Z,6.70
2018-06-10T03:01:51.554Z,6.90
2018-06-10T03:04:20.380Z,7.10
2018-06-10T03:06:49.273Z,6.93
2018-06-10T03:09:18.112Z,6.60
2018-06-10T03:11:46.920Z,6.47
2018-06-10T03:14:15.692Z,7.07
2018-06-10T03:16:44.528Z,6.63
2018-06-10T03:19:13.408Z,7.10
2018-06-10T03:21:42.159Z,6.90
2018-06-10T03:24:10.973Z,6.93
2018-06-10T03:26:39.748Z,5.97
2018-06-10T03:29:08.536Z,6.73
2018-06-10T03:31:37.335Z,6.37
2018-06-10T03:34:06.079Z,6.70
2018-06-10T03:36:34.915Z,6.73
2018-06-10T03:39:06.744Z,6.80
2018-06-10T03:41:35.780Z,6.23
2018-06-10T03:44:04.536Z,7.17
2018-06-10T03:46:33.370Z,5.90
2018-06-10T03:49:02.248Z,6.40
2018-06-10T03:51:31.099Z,6.20
2018-06-10T03:53:59.891Z,6.07
2018-06-10T03:56:28.717Z,5.90
2018-06-10T03:58:57.567Z,6.17
2018-06-10T04:01:26.347Z,5.93
2018-06-10T04:03:55.130Z,5.50
2018-06-10T04:06:23.914Z,5.87
2018-06-10T04:08:52.711Z,5.67
2018-06-10T04:11:21.507Z,5.87
2018-06-10T04:13:51.367Z,5.63
2018-06-10T04:16:20.179Z,5.83
2018-06-10T04:18:48.975Z,6.30
2018-06-10T04:21:17.779Z,5.93
2018-06-10T04:23:46.551Z,6.73
2018-06-10T04:26:15.358Z,5.57
2018-06-10T04:28:44.143Z,5.17
2018-06-10T04:31:12.943Z,5.63
2018-06-10T04:33:41.519Z,5.90
2018-06-10T04:36:10.195Z,5.83
2018-06-10T04:38:39.003Z,5.63
2018-06-10T04:41:07.791Z,5.97
2018-06-10T04:43:36.559Z,5.40
2018-06-10T04:46:05.355Z,5.27
2018-06-10T04:48:34.123Z,5.40
2018-06-10T04:51:02.916Z,4.90
2018-06-10T04:53:31.759Z,5.33
2018-06-10T04:56:00.616Z,4.43
2018-06-10T04:58:29.395Z,4.90
2018-06-10T05:00:58.155Z,5.17
2018-06-10T05:03:26.963Z,5.77
2018-06-10T05:05:55.756Z,4.73
2018-06-10T05:08:24.523Z,4.87
2018-06-10T05:10:53.327Z,4.73
2018-06-10T05:13:22.110Z,4.50
2018-06-10T05:15:50.914Z,4.53
2018-06-10T05:18:19.707Z,5.47
2018-06-10T05:20:48.473Z,4.70
2018-06-10T05:23:17.259Z,5.10
2018-06-10T05:25:46.059Z,4.77
2018-06-10T05:28:14.830Z,5.00
2018-06-10T05:30:43.639Z,4.43
2018-06-10T05:33:13.431Z,4.63
2018-06-10T05:35:42.219Z,5.10
2018-06-10T05:38:11.711Z,5.37
2018-06-10T05:40:40.503Z,4.60
2018-06-10T05:43:09.456Z,4.67
2018-06-10T05:45:38.291Z,4.43
2018-06-10T05:48:07.115Z,5.17
2018-06-10T05:50:35.851Z,5.50
2018-06-10T05:53:04.639Z,4.40
2018-06-10T05:55:33.439Z,4.53
2018-06-10T05:58:03.251Z,5.60
2018-06-10T06:00:32.051Z,5.50
2018-06-10T06:03:00.851Z,5.53
2018-06-10T06:05:29.596Z,4.50
2018-06-10T06:07:58.387Z,5.73
2018-06-10T06:10:27.175Z,5.70
2018-06-10T06:12:55.983Z,6.43
2018-06-10T06:15:24.755Z,6.20
2018-06-10T06:17:53.527Z,6.47
2018-06-10T06:20:22.327Z,6.47
2018-06-10T06:22:52.139Z,6.27
2018-06-10T06:25:20.934Z,5.77
2018-06-10T06:27:49.731Z,5.90
2018-06-10T06:30:19.538Z,6.30
2018-06-10T06:32:48.311Z,6.37
2018-06-10T06:35:17.114Z,6.53
2018-06-10T06:37:45.883Z,7.20
2018-06-10T06:40:14.686Z,6.73
2018-06-10T06:42:44.486Z,6.73
2018-06-10T06:45:13.275Z,6.97
2018-06-10T06:47:42.074Z,6.60
2018-06-10T06:50:10.878Z,6.40
2018-06-10T06:52:39.730Z,6.33
2018-06-10T06:55:08.442Z,6.80
2018-06-10T06:57:37.219Z,6.83
2018-06-10T07:00:06.007Z,6.40
2018-06-10T07:02:34.807Z,6.20
2018-06-10T07:05:03.587Z,7.23
2018-06-10T07:07:32.370Z,6.97
2018-06-10T07:10:01.155Z,7.10
2018-06-10T07:12:29.939Z,6.80
2018-06-10T07:14:58.746Z,7.03
2018-06-10T07:17:27.502Z,6.97
2018-06-10T07:19:56.361Z,6.60
2018-06-10T07:22:25.083Z,6.90
2018-06-10T07:24:53.884Z,6.00
2018-06-10T07:27:22.667Z,5.73
2018-06-10T07:29:51.455Z,6.03
2018-06-10T07:32:20.242Z,6.60
2018-06-10T07:34:49.034Z,6.50
2018-06-10T07:37:17.833Z,6.10
2018-06-10T07:39:46.603Z,5.30
2018-06-10T07:42:15.405Z,5.70
2018-06-10T07:44:44.183Z,6.17
2018-06-10T07:47:12.987Z,5.73
2018-06-10T07:49:41.754Z,6.03
2018-06-10T07:52:10.551Z,5.90
2018-06-10T07:54:39.316Z,4.93
2018-06-10T07:57:08.138Z,5.50
2018-06-10T07:59:36.922Z,5.57
2018-06-10T08:02:05.800Z,5.77
2018-06-10T08:04:34.609Z,5.03
2018-06-10T08:07:03.162Z,5.30
2018-06-10T08:09:31.854Z,5.37
2018-06-10T08:12:00.707Z,5.30
2018-06-10T08:14:29.438Z,4.93
2018-06-10T08:16:58.222Z,5.10
2018-06-10T08:19:27.010Z,4.67
2018-06-10T08:21:55.823Z,5.53
2018-06-10T08:24:24.611Z,5.53
2018-06-10T08:26:53.366Z,5.33
2018-06-10T08:29:22.158Z,4.50
2018-06-10T08:31:50.951Z,4.83
2018-06-10T08:34:19.746Z,5.60
2018-06-10T08:36:48.535Z,5.00
2018-06-10T08:39:17.310Z,5.50
2018-06-10T08:41:46.098Z,4.67
2018-06-10T08:44:14.923Z,4.90
2018-06-10T08:46:43.554Z,5.10
2018-06-10T08:49:12.279Z,4.43
2018-06-10T08:51:41.031Z,4.90
2018-06-10T08:54:09.814Z,4.60
2018-06-10T08:56:38.623Z,4.43
2018-06-10T08:59:07.398Z,4.63
2018-06-10T09:01:36.194Z,4.50
2018-06-10T09:04:04.975Z,4.73
2018-06-10T09:06:33.755Z,4.13
2018-06-10T09:09:02.539Z,5.57
2018-06-10T09:11:31.338Z,4.30
2018-06-10T09:14:00.606Z,5.00
2018-06-10T09:16:29.327Z,4.70
2018-06-10T09:18:58.119Z,4.57
2018-06-10T09:21:26.907Z,5.00
2018-06-10T09:23:55.723Z,4.50
2018-06-10T09:26:24.290Z,4.70
2018-06-10T09:28:52.858Z,4.30
2018-06-10T09:31:22.562Z,4.20
2018-06-10T09:33:51.370Z,4.37
2018-06-10T09:36:20.154Z,4.37
2018-06-10T09:38:48.942Z,4.20
2018-06-10T09:41:17.734Z,4.50
2018-06-10T09:43:46.529Z,4.10
2018-06-10T09:46:15.171Z,4.17
2018-06-10T09:48:43.867Z,4.93
2018-06-10T09:51:13.674Z,3.90
2018-06-10T09:53:42.474Z,3.77
2018-06-10T09:56:11.321Z,4.43
2018-06-10T09:58:40.067Z,3.97
2018-06-10T10:01:08.850Z,3.77
2018-06-10T10:03:37.628Z,3.90
2018-06-10T10:06:06.430Z,4.00
2018-06-10T10:08:35.206Z,4.03
2018-06-10T10:11:04.050Z,4.17
2018-06-10T10:13:32.766Z,4.27
2018-06-10T10:16:01.559Z,3.83
2018-06-10T10:18:30.364Z,4.20
2018-06-10T10:20:59.150Z,3.87
2018-06-10T10:23:27.930Z,3.40
2018-06-10T10:25:56.715Z,4.10
2018-06-10T10:28:25.531Z,3.73
2018-06-10T10:30:54.294Z,3.87
2018-06-10T10:33:23.106Z,4.27
2018-06-10T10:35:51.830Z,3.87
2018-06-10T10:38:20.659Z,3.67
2018-06-10T10:40:49.449Z,4.17
2018-06-10T10:43:18.231Z,3.77
2018-06-10T10:45:47.007Z,4.23
2018-06-10T10:48:15.726Z,3.80
2018-06-10T10:50:44.486Z,4.10
2018-06-10T10:53:13.202Z,3.53
2018-06-10T10:55:41.792Z,4.23
2018-06-10T10:58:10.447Z,4.17
2018-06-10T11:00:38.922Z,3.10
2018-06-10T11:03:07.614Z,4.07
2018-06-10T11:05:36.402Z,3.60
2018-06-10T11:08:05.158Z,3.83
2018-06-10T11:10:34.031Z,3.47
2018-06-10T11:13:02.510Z,3.50
2018-06-10T11:15:31.261Z,4.00
2018-06-10T11:17:59.830Z,3.70
2018-06-10T11:20:28.577Z,3.83
2018-06-10T11:22:57.310Z,3.80
2018-06-10T11:25:26.122Z,4.00
2018-06-10T11:27:54.881Z,3.80
2018-06-10T11:30:23.682Z,3.90
2018-06-10T11:32:52.490Z,4.30
2018-06-10T11:35:21.237Z,3.83
2018-06-10T11:37:49.989Z,3.50
2018-06-10T11:40:18.822Z,4.30
2018-06-10T11:42:47.649Z,3.83
2018-06-10T11:45:16.197Z,3.97
2018-06-10T11:47:44.600Z,4.03
2018-06-10T11:50:13.240Z,3.43
2018-06-10T11:52:42.037Z,3.50
2018-06-10T11:55:10.757Z,4.20
2018-06-10T11:57:39.488Z,4.27
2018-06-10T12:00:08.301Z,3.30
2018-06-10T12:02:37.089Z,3.90
2018-06-10T12:05:05.865Z,4.20
2018-06-10T12:07:34.447Z,4.40
2018-06-10T12:10:03.132Z,3.97
2018-06-10T12:12:31.932Z,3.70
2018-06-10T12:15:00.716Z,4.00
2018-06-10T12:17:29.508Z,4.60
2018-06-10T12:19:58.216Z,4.10
2018-06-10T12:22:27.016Z,4.57
2018-06-10T12:24:55.961Z,4.27
2018-06-10T12:27:24.812Z,4.00
2018-06-10T12:29:53.637Z,4.70
2018-06-10T12:32:22.494Z,4.50
2018-06-10T12:34:51.314Z,3.97
2018-06-10T12:37:20.097Z,4.63
2018-06-10T12:39:48.893Z,4.43
2018-06-10T12:42:17.472Z,4.73
2018-06-10T12:44:46.160Z,4.73
2018-06-10T12:47:14.965Z,4.70
2018-06-10T12:49:43.673Z,5.30
2018-06-10T12:52:12.164Z,5.23
2018-06-10T12:54:40.917Z,5.60
2018-06-10T12:57:09.682Z,5.43
2018-06-10T12:59:38.489Z,5.23
2018-06-10T13:02:07.372Z,5.83
2018-06-10T13:04:36.166Z,5.30
2018-06-10T13:07:04.982Z,5.70
2018-06-10T13:09:33.760Z,5.47
2018-06-10T13:12:03.546Z,5.70
2018-06-10T13:14:32.342Z,6.47
2018-06-10T13:17:01.138Z,6.00
2018-06-10T13:19:29.922Z,6.27
2018-06-10T13:21:58.722Z,6.93
2018-06-10T13:24:27.493Z,7.00
2018-06-10T13:26:56.286Z,6.40
2018-06-10T13:29:25.084Z,7.03
2018-06-10T13:31:53.810Z,7.27
2018-06-10T13:34:22.542Z,6.63
2018-06-10T13:36:52.353Z,6.20
2018-06-10T13:39:21.198Z,6.60
2018-06-10T13:41:50.026Z,6.77
2018-06-10T13:44:18.849Z,7.23
2018-06-10T13:46:47.401Z,7.20
2018-06-10T13:49:16.122Z,6.70
2018-06-10T13:51:44.874Z,7.50
2018-06-10T13:54:13.673Z,6.70
2018-06-10T13:56:42.410Z,7.67
2018-06-10T13:59:11.241Z,7.30
2018-06-10T14:01:40.054Z,7.50
2018-06-10T14:04:08.805Z,7.20
2018-06-10T14:06:37.613Z,5.87
2018-06-10T14:09:06.957Z,6.30
2018-06-10T14:11:35.785Z,6.73
2018-06-10T14:14:04.593Z,6.40
2018-06-10T14:16:34.398Z,7.00
2018-06-10T14:19:03.230Z,6.93
2018-06-10T14:21:31.770Z,5.97
2018-06-10T14:24:00.454Z,7.50
2018-06-10T14:26:29.242Z,6.80
2018-06-10T14:28:58.077Z,6.23
2018-06-10T14:31:26.854Z,6.30
2018-06-10T14:33:55.610Z,6.70
2018-06-10T14:36:24.421Z,6.20
2018-06-10T14:38:53.191Z,7.00
2018-06-10T14:41:21.977Z,6.83
2018-06-10T14:43:50.781Z,7.60
2018-06-10T14:46:19.568Z,6.90
2018-06-10T14:48:48.349Z,8.07
2018-06-10T14:51:17.177Z,6.50
2018-06-10T14:53:45.902Z,6.53
2018-06-10T14:56:14.713Z,6.87
2018-06-10T14:58:43.496Z,6.10
2018-06-10T15:01:12.265Z,7.07
2018-06-10T15:03:41.072Z,7.97
2018-06-10T15:06:09.870Z,7.40
2018-06-10T15:08:38.628Z,6.90
2018-06-10T15:11:07.433Z,6.20
2018-06-10T15:13:36.217Z,6.63
2018-06-10T15:16:05.005Z,7.50
2018-06-10T15:18:33.718Z,6.10
2018-06-10T15:21:02.466Z,6.63
2018-06-10T15:23:31.181Z,6.47
2018-06-10T15:25:59.941Z,6.23
2018-06-10T15:28:28.718Z,7.00
2018-06-10T15:33:25.785Z,6.57
2018-06-10T15:35:54.376Z,7.53
2018-06-10T15:38:23.069Z,7.60
2018-06-10T15:40:51.859Z,6.83
2018-06-10T15:43:20.629Z,7.03
2018-06-10T15:45:49.417Z,7.20
2018-06-10T15:48:18.213Z,6.90
2018-06-10T15:50:46.994Z,7.30
2018-06-10T15:53:16.809Z,7.13
2018-06-10T15:55:45.533Z,7.17
2018-06-10T15:58:14.294Z,6.87
2018-06-10T16:00:42.809Z,7.60
2018-06-10T16:03:11.541Z,6.73
2018-06-10T16:05:40.337Z,6.70
2018-06-10T16:08:09.117Z,7.30
2018-06-10T16:10:37.841Z,7.30
2018-06-10T16:13:06.617Z,6.87
2018-06-10T16:15:35.397Z,7.30
2018-06-10T16:18:04.177Z,7.10
2018-06-10T16:20:32.965Z,7.40
2018-06-10T16:23:01.753Z,6.83
2018-06-10T16:25:30.575Z,7.57
2018-06-10T16:27:59.421Z,6.80
2018-06-10T16:30:28.120Z,7.33
2018-06-10T16:32:56.903Z,6.87
2018-06-10T16:35:25.689Z,6.93
2018-06-10T16:37:54.477Z,7.00
2018-06-10T16:40:23.258Z,6.40
2018-06-10T16:42:52.041Z,6.43
2018-06-10T16:45:20.849Z,7.50
2018-06-10T16:47:49.625Z,6.73
2018-06-10T16:50:18.405Z,7.37
2018-06-10T16:52:47.220Z,6.53
2018-06-10T16:55:15.993Z,6.53
2018-06-10T16:57:44.776Z,6.20
2018-06-10T17:00:13.562Z,6.70
2018-06-10T17:02:42.357Z,7.63
2018-06-10T17:05:11.133Z,6.43
2018-06-10T17:07:39.933Z,6.60
2018-06-10T17:10:08.713Z,7.23
2018-06-10T17:12:37.505Z,6.90
2018-06-10T17:15:06.349Z,5.87
2018-06-10T17:17:35.081Z,6.00
2018-06-10T17:20:03.936Z,5.67
2018-06-10T17:22:32.753Z,6.27
2018-06-10T17:25:01.489Z,6.20
2018-06-10T17:27:30.217Z,6.63
2018-06-10T17:29:59.017Z,6.13
2018-06-10T17:32:27.804Z,5.50
2018-06-10T17:34:56.572Z,5.87
2018-06-10T17:37:25.364Z,5.87
2018-06-10T17:39:54.148Z,6.13
2018-06-10T17:42:22.944Z,6.20
2018-06-10T17:44:51.649Z,5.60
2018-06-10T17:47:20.428Z,5.90
2018-06-10T17:49:49.220Z,6.20
2018-06-10T17:52:17.933Z,5.97
2018-06-10T17:54:46.636Z,6.40
2018-06-10T17:57:15.376Z,5.73
2018-06-10T17:59:44.148Z,5.80
2018-06-10T18:02:12.956Z,5.37
2018-06-10T18:04:41.808Z,6.00
2018-06-10T18:07:10.628Z,6.07
2018-06-10T18:09:39.412Z,6.00
2018-06-10T18:12:08.188Z,5.30
2018-06-10T18:14:36.912Z,6.00
2018-06-10T18:17:05.676Z,4.90
2018-06-10T18:19:34.464Z,5.43
2018-06-10T18:22:03.328Z,6.17
2018-06-10T18:24:32.312Z,5.87
2018-06-10T18:27:01.064Z,6.10
2018-06-10T18:29:29.847Z,6.33
2018-06-10T18:31:58.644Z,6.23
2018-06-10T18:34:27.412Z,5.97
2018-06-10T18:36:56.184Z,5.87
2018-06-10T18:39:24.972Z,5.83
2018-06-10T18:41:53.772Z,5.50
2018-06-10T18:44:22.548Z,5.80
2018-06-10T18:46:51.346Z,6.10
2018-06-10T18:49:20.060Z,5.50
2018-06-10T18:51:48.836Z,6.27
2018-06-10T18:54:17.583Z,6.40
2018-06-10T18:56:46.380Z,5.80
2018-06-10T18:59:15.103Z,6.33
2018-06-10T19:01:43.872Z,5.40
2018-06-10T19:04:12.608Z,5.87
2018-06-10T19:06:41.446Z,5.87
2018-06-10T19:09:10.172Z,6.07
2018-06-10T19:11:38.929Z,6.50
2018-06-10T19:14:07.724Z,6.33
2018-06-10T19:16:36.496Z,6.20
2018-06-10T19:19:05.367Z,6.37
2018-06-10T19:21:34.152Z,6.57
2018-06-10T19:24:02.876Z,6.80
2018-06-10T19:26:31.636Z,7.00
2018-06-10T19:29:00.436Z,6.20
2018-06-10T19:31:29.212Z,6.80
2018-06-10T19:33:58.021Z,6.50
2018-06-10T19:36:26.784Z,6.87
2018-06-10T19:38:55.601Z,6.87
2018-06-10T19:41:24.380Z,7.00
2018-06-10T19:43:53.247Z,7.00
2018-06-10T19:46:22.052Z,7.10
2018-06-10T19:48:50.612Z,6.57
2018-06-10T19:51:19.248Z,6.37
2018-06-10T19:53:47.992Z,6.43
2018-06-10T19:56:16.792Z,7.40
2018-06-10T19:58:45.608Z,6.63
2018-06-10T20:01:14.392Z,7.47
2018-06-10T20:03:43.160Z,7.50
2018-06-10T20:06:11.940Z,7.90
2018-06-10T20:08:40.731Z,8.23
2018-06-10T20:11:09.524Z,7.43
2018-06-10T20:13:38.291Z,7.20
2018-06-10T20:16:07.092Z,7.07
2018-06-10T20:18:35.843Z,7.07
2018-06-10T20:21:04.592Z,7.60
2018-06-10T20:23:33.384Z,7.20
2018-06-10T20:26:02.148Z,7.50
2018-06-10T20:28:30.716Z,7.03
2018-06-10T20:30:59.413Z,8.00
2018-06-10T20:33:28.167Z,7.30
2018-06-10T20:35:57.008Z,7.40
2018-06-10T20:38:25.727Z,8.33
2018-06-10T20:40:54.561Z,7.50
2018-06-10T20:43:23.352Z,7.47
2018-06-10T20:45:52.131Z,7.70
2018-06-10T20:48:20.936Z,7.00
2018-06-10T20:50:49.704Z,7.23
2018-06-10T20:53:18.520Z,7.57
2018-06-10T20:55:47.284Z,8.07
2018-06-10T20:58:16.033Z,8.10
2018-06-10T21:00:44.868Z,7.27
2018-06-10T21:03:13.701Z,8.60
2018-06-10T21:05:42.447Z,7.50
2018-06-10T21:08:11.225Z,7.83
2018-06-10T21:10:40.033Z,7.80
2018-06-10T21:13:08.821Z,8.17
2018-06-10T21:15:37.611Z,8.00
2018-06-10T21:18:06.383Z,8.60
2018-06-10T21:20:35.303Z,7.70
2018-06-10T21:23:05.251Z,8.03
2018-06-10T21:25:34.123Z,8.87
2018-06-10T21:28:02.927Z,8.73
2018-06-10T21:30:31.811Z,8.50
2018-06-10T21:33:00.667Z,8.40
2018-06-10T21:35:30.531Z,8.87
2018-06-10T21:37:59.439Z,8.97
2018-06-10T21:40:29.312Z,7.97
2018-06-10T21:42:58.128Z,8.80
2018-06-10T21:45:26.980Z,8.23
2018-06-10T21:47:55.755Z,8.30
2018-06-10T21:50:24.532Z,8.50
2018-06-10T21:52:53.276Z,7.87
2018-06-10T21:55:22.036Z,8.33
2018-06-10T21:57:50.852Z,9.20
2018-06-10T22:00:24.676Z,9.80
2018-06-10T22:02:53.756Z,8.70
2018-06-10T22:05:22.627Z,8.47
2018-06-10T22:07:51.503Z,9.20
2018-06-10T22:10:20.275Z,9.13
2018-06-10T22:12:49.035Z,9.00
2018-06-10T22:15:17.839Z,8.40
2018-06-10T22:17:46.643Z,9.10
2018-06-10T22:20:15.426Z,9.67
2018-06-10T22:22:45.047Z,8.60
2018-06-10T22:25:13.839Z,8.70
2018-06-10T22:27:42.621Z,8.03
2018-06-10T22:30:11.387Z,9.40
2018-06-10T22:32:40.223Z,8.27
2018-06-10T22:35:09.379Z,8.90
2018-06-10T22:37:38.183Z,8.43
2018-06-10T22:40:07.787Z,8.53
2018-06-10T22:42:36.611Z,8.63
2018-06-10T22:45:05.454Z,8.10
2018-06-10T22:47:34.146Z,8.70
2018-06-10T22:50:02.869Z,7.97
2018-06-10T22:52:31.803Z,9.47
2018-06-10T22:55:00.635Z,8.63
2018-06-10T22:57:29.449Z,8.87
2018-06-10T22:59:58.251Z,9.17
2018-06-10T23:02:27.067Z,9.80
2018-06-10T23:04:56.951Z,9.10
2018-06-10T23:07:25.969Z,8.60
2018-06-10T23:09:54.811Z,9.20
2018-06-10T23:12:23.687Z,9.63
2018-06-10T23:14:52.554Z,8.90
2018-06-10T23:17:21.351Z,9.53
2018-06-10T23:19:50.223Z,9.57
2018-06-10T23:22:19.067Z,9.70
2018-06-10T23:24:47.919Z,10.10
2018-06-10T23:27:16.679Z,9.90
2018-06-10T23:29:45.509Z,8.80
2018-06-10T23:32:14.283Z,9.47
2018-06-10T23:34:43.194Z,9.47
2018-06-10T23:37:12.075Z,9.27
2018-06-10T23:39:40.829Z,9.77
2018-06-10T23:42:09.671Z,8.50
2018-06-10T23:44:38.557Z,9.47
2018-06-10T23:47:07.424Z,9.67
2018-06-10T23:49:35.934Z,9.33
2018-06-10T23:52:04.618Z,10.20
2018-06-10T23:54:33.437Z,9.00
2018-06-10T23:57:02.242Z,9.10
2018-06-10T23:59:31.066Z,10.30
